sensor_id;sensor_type;location;lat;lon;timestamp;pressure;altitude;pressure_sealevel;temperature;humidity
39223;BME280;24936;46.328;11.026;2023-04-26T00:01:16;94025.75;;;2.63;70.19
39223;BME280;24936;46.328;11.026;2023-04-26T00:03:42;94019.50;;;2.53;69.34
39223;BME280;24936;46.328;11.026;2023-04-26T00:06:07;94023.38;;;2.20;70.61
39223;BME280;24936;46.328;11.026;2023-04-26T00:08:35;94033.06;;;2.03;72.18
39223;BME280;24936;46.328;11.026;2023-04-26T00:11:00;94042.28;;;1.67;74.32
39223;BME280;24936;46.328;11.026;2023-04-26T00:13:26;94029.09;;;1.85;75.05
39223;BME280;24936;46.328;11.026;2023-04-26T00:15:51;94031.47;;;1.60;77.20
39223;BME280;24936;46.328;11.026;2023-04-26T00:18:17;94023.38;;;1.37;78.56
39223;BME280;24936;46.328;11.026;2023-04-26T00:20:42;94047.53;;;1.09;80.82
39223;BME280;24936;46.328;11.026;2023-04-26T00:23:08;94043.66;;;0.87;81.45
39223;BME280;24936;46.328;11.026;2023-04-26T00:25:35;94053.00;;;0.90;79.29
39223;BME280;24936;46.328;11.026;2023-04-26T00:28:00;94046.78;;;0.93;80.34
39223;BME280;24936;46.328;11.026;2023-04-26T00:30:26;94043.38;;;0.78;81.30
39223;BME280;24936;46.328;11.026;2023-04-26T00:32:52;94045.66;;;0.68;80.81
39223;BME280;24936;46.328;11.026;2023-04-26T00:35:17;94040.88;;;0.76;80.78
39223;BME280;24936;46.328;11.026;2023-04-26T00:37:43;94045.41;;;1.30;78.30
39223;BME280;24936;46.328;11.026;2023-04-26T00:40:09;94044.66;;;1.28;78.13
39223;BME280;24936;46.328;11.026;2023-04-26T00:42:36;94054.19;;;1.42;76.62
39223;BME280;24936;46.328;11.026;2023-04-26T00:45:01;94046.72;;;1.23;79.00
39223;BME280;24936;46.328;11.026;2023-04-26T00:47:28;94047.63;;;0.93;80.88
39223;BME280;24936;46.328;11.026;2023-04-26T00:49:55;94038.06;;;0.65;82.46
39223;BME280;24936;46.328;11.026;2023-04-26T00:52:21;94041.38;;;0.52;83.06
39223;BME280;24936;46.328;11.026;2023-04-26T00:54:50;94050.88;;;0.97;81.48
39223;BME280;24936;46.328;11.026;2023-04-26T00:57:16;94050.31;;;1.06;79.46
39223;BME280;24936;46.328;11.026;2023-04-26T00:59:41;94052.19;;;0.89;81.16
39223;BME280;24936;46.328;11.026;2023-04-26T01:02:07;94045.09;;;0.77;81.99
39223;BME280;24936;46.328;11.026;2023-04-26T01:04:33;94050.94;;;0.66;81.80
39223;BME280;24936;46.328;11.026;2023-04-26T01:07:02;94054.47;;;0.65;82.88
39223;BME280;24936;46.328;11.026;2023-04-26T01:09:30;94057.03;;;0.65;81.65
39223;BME280;24936;46.328;11.026;2023-04-26T01:11:56;94061.34;;;0.95;79.49
39223;BME280;24936;46.328;11.026;2023-04-26T01:14:23;94062.44;;;1.20;77.59
39223;BME280;24936;46.328;11.026;2023-04-26T01:16:49;94054.28;;;1.41;74.39
39223;BME280;24936;46.328;11.026;2023-04-26T01:19:16;94062.53;;;1.33;74.92
39223;BME280;24936;46.328;11.026;2023-04-26T01:21:42;94057.09;;;1.23;75.71
39223;BME280;24936;46.328;11.026;2023-04-26T01:24:10;94055.19;;;1.40;74.75
39223;BME280;24936;46.328;11.026;2023-04-26T01:26:36;94056.19;;;1.66;72.40
39223;BME280;24936;46.328;11.026;2023-04-26T01:29:18;94069.31;;;1.35;74.70
39223;BME280;24936;46.328;11.026;2023-04-26T01:31:45;94071.34;;;1.16;75.36
39223;BME280;24936;46.328;11.026;2023-04-26T01:34:11;94075.88;;;1.41;73.18
39223;BME280;24936;46.328;11.026;2023-04-26T01:36:37;94074.03;;;1.43;72.47
39223;BME280;24936;46.328;11.026;2023-04-26T01:39:02;94069.44;;;1.61;71.54
39223;BME280;24936;46.328;11.026;2023-04-26T01:41:28;94078.75;;;1.22;74.71
39223;BME280;24936;46.328;11.026;2023-04-26T01:43:54;94083.84;;;1.09;76.46
39223;BME280;24936;46.328;11.026;2023-04-26T01:46:20;94083.63;;;0.83;75.82
39223;BME280;24936;46.328;11.026;2023-04-26T01:48:45;94077.38;;;0.57;76.59
39223;BME280;24936;46.328;11.026;2023-04-26T01:51:11;94080.31;;;1.10;72.74
39223;BME280;24936;46.328;11.026;2023-04-26T01:53:37;94074.97;;;1.13;73.97
39223;BME280;24936;46.328;11.026;2023-04-26T01:56:03;94084.00;;;0.91;74.38
39223;BME280;24936;46.328;11.026;2023-04-26T01:58:30;94084.63;;;0.66;77.87
39223;BME280;24936;46.328;11.026;2023-04-26T02:01:04;94083.56;;;0.54;76.36
39223;BME280;24936;46.328;11.026;2023-04-26T02:03:30;94078.81;;;0.91;73.61
39223;BME280;24936;46.328;11.026;2023-04-26T02:05:55;94080.66;;;0.75;75.33
39223;BME280;24936;46.328;11.026;2023-04-26T02:08:21;94082.84;;;0.67;76.33
39223;BME280;24936;46.328;11.026;2023-04-26T02:10:46;94088.47;;;0.59;76.77
39223;BME280;24936;46.328;11.026;2023-04-26T02:13:12;94092.22;;;0.84;75.40
39223;BME280;24936;46.328;11.026;2023-04-26T02:15:37;94094.94;;;1.26;71.99
39223;BME280;24936;46.328;11.026;2023-04-26T02:18:03;94089.19;;;1.35;71.40
39223;BME280;24936;46.328;11.026;2023-04-26T02:20:28;94095.38;;;0.89;74.13
39223;BME280;24936;46.328;11.026;2023-04-26T02:22:54;94092.25;;;0.53;76.59
39223;BME280;24936;46.328;11.026;2023-04-26T02:25:19;94092.78;;;0.44;75.81
39223;BME280;24936;46.328;11.026;2023-04-26T02:27:45;94086.28;;;0.37;75.78
39223;BME280;24936;46.328;11.026;2023-04-26T02:30:11;94098.88;;;0.12;78.63
39223;BME280;24936;46.328;11.026;2023-04-26T02:32:37;94099.91;;;-0.22;81.18
39223;BME280;24936;46.328;11.026;2023-04-26T02:35:03;94103.22;;;-0.20;80.52
39223;BME280;24936;46.328;11.026;2023-04-26T02:37:29;94098.41;;;-0.26;80.07
39223;BME280;24936;46.328;11.026;2023-04-26T02:39:54;94107.22;;;0.02;78.49
39223;BME280;24936;46.328;11.026;2023-04-26T02:42:20;94105.41;;;-0.12;80.41
39223;BME280;24936;46.328;11.026;2023-04-26T02:44:45;94111.94;;;-0.21;80.29
39223;BME280;24936;46.328;11.026;2023-04-26T02:47:11;94104.38;;;0.06;76.67
39223;BME280;24936;46.328;11.026;2023-04-26T02:55:57;94110.50;;;-0.11;77.61
39223;BME280;24936;46.328;11.026;2023-04-26T02:58:25;94104.66;;;-0.31;80.21
39223;BME280;24936;46.328;11.026;2023-04-26T03:00:50;94105.97;;;-0.39;81.13
39223;BME280;24936;46.328;11.026;2023-04-26T03:03:16;94114.16;;;-0.47;81.23
39223;BME280;24936;46.328;11.026;2023-04-26T03:05:41;94104.41;;;-0.42;80.19
39223;BME280;24936;46.328;11.026;2023-04-26T03:08:07;94101.72;;;-0.40;81.13
39223;BME280;24936;46.328;11.026;2023-04-26T03:10:33;94094.38;;;-0.48;80.10
39223;BME280;24936;46.328;11.026;2023-04-26T03:12:58;94096.41;;;-0.21;79.22
39223;BME280;24936;46.328;11.026;2023-04-26T03:15:24;94097.41;;;-0.08;78.85
39223;BME280;24936;46.328;11.026;2023-04-26T03:17:49;94086.38;;;0.35;74.92
39223;BME280;24936;46.328;11.026;2023-04-26T03:20:15;94088.09;;;0.20;75.13
39223;BME280;24936;46.328;11.026;2023-04-26T03:22:40;94086.53;;;0.02;77.00
39223;BME280;24936;46.328;11.026;2023-04-26T03:25:06;94089.72;;;-0.25;78.54
39223;BME280;24936;46.328;11.026;2023-04-26T03:27:33;94088.88;;;-0.42;80.72
39223;BME280;24936;46.328;11.026;2023-04-26T03:29:59;94091.97;;;-0.19;79.54
39223;BME280;24936;46.328;11.026;2023-04-26T03:32:24;94090.38;;;0.41;75.41
39223;BME280;24936;46.328;11.026;2023-04-26T03:34:50;94091.81;;;0.30;76.93
39223;BME280;24936;46.328;11.026;2023-04-26T03:37:15;94098.28;;;0.07;78.25
39223;BME280;24936;46.328;11.026;2023-04-26T03:39:41;94096.16;;;-0.17;78.52
39223;BME280;24936;46.328;11.026;2023-04-26T03:42:06;94092.16;;;-0.22;79.23
39223;BME280;24936;46.328;11.026;2023-04-26T03:44:32;94091.13;;;-0.20;78.54
39223;BME280;24936;46.328;11.026;2023-04-26T03:46:57;94098.63;;;-0.47;79.91
39223;BME280;24936;46.328;11.026;2023-04-26T03:49:23;94104.06;;;-0.52;80.45
39223;BME280;24936;46.328;11.026;2023-04-26T03:51:49;94106.06;;;-0.57;80.34
39223;BME280;24936;46.328;11.026;2023-04-26T03:54:14;94096.72;;;-0.27;79.52
39223;BME280;24936;46.328;11.026;2023-04-26T03:56:40;94098.72;;;-0.01;77.56
39223;BME280;24936;46.328;11.026;2023-04-26T03:59:06;94103.38;;;0.09;76.75
39223;BME280;24936;46.328;11.026;2023-04-26T04:01:33;94102.38;;;-0.05;76.89
39223;BME280;24936;46.328;11.026;2023-04-26T04:03:59;94109.41;;;-0.23;78.04
39223;BME280;24936;46.328;11.026;2023-04-26T04:06:24;94110.47;;;-0.27;78.32
39223;BME280;24936;46.328;11.026;2023-04-26T04:08:50;94107.56;;;-0.21;77.22
39223;BME280;24936;46.328;11.026;2023-04-26T04:11:15;94114.91;;;0.03;77.23
39223;BME280;24936;46.328;11.026;2023-04-26T04:13:41;94116.56;;;0.04;76.86
39223;BME280;24936;46.328;11.026;2023-04-26T04:16:06;94118.59;;;-0.33;79.73
39223;BME280;24936;46.328;11.026;2023-04-26T04:18:34;94121.84;;;-0.29;78.82
39223;BME280;24936;46.328;11.026;2023-04-26T04:20:59;94136.28;;;-0.25;77.78
39223;BME280;24936;46.328;11.026;2023-04-26T04:23:25;94134.94;;;-0.49;78.75
39223;BME280;24936;46.328;11.026;2023-04-26T04:25:52;94140.22;;;-0.68;80.46
39223;BME280;24936;46.328;11.026;2023-04-26T04:28:17;94134.94;;;-0.82;82.71
39223;BME280;24936;46.328;11.026;2023-04-26T04:30:43;94134.97;;;-1.00;83.79
39223;BME280;24936;46.328;11.026;2023-04-26T04:33:10;94150.63;;;-1.03;82.40
39223;BME280;24936;46.328;11.026;2023-04-26T04:35:36;94150.31;;;-1.14;82.80
39223;BME280;24936;46.328;11.026;2023-04-26T04:38:02;94151.25;;;-1.15;83.67
39223;BME280;24936;46.328;11.026;2023-04-26T04:40:27;94146.16;;;-0.99;83.89
39223;BME280;24936;46.328;11.026;2023-04-26T04:42:53;94148.78;;;-1.01;84.78
39223;BME280;24936;46.328;11.026;2023-04-26T04:45:19;94150.94;;;-1.09;83.55
39223;BME280;24936;46.328;11.026;2023-04-26T04:47:45;94153.34;;;-0.88;82.77
39223;BME280;24936;46.328;11.026;2023-04-26T04:50:11;94156.78;;;-0.54;80.76
39223;BME280;24936;46.328;11.026;2023-04-26T04:52:37;94155.84;;;-0.53;80.81
39223;BME280;24936;46.328;11.026;2023-04-26T04:55:03;94160.38;;;-0.41;80.78
39223;BME280;24936;46.328;11.026;2023-04-26T04:57:29;94161.28;;;-0.42;81.06
39223;BME280;24936;46.328;11.026;2023-04-26T04:59:55;94161.44;;;-0.45;80.32
39223;BME280;24936;46.328;11.026;2023-04-26T05:02:21;94160.78;;;-0.33;79.58
39223;BME280;24936;46.328;11.026;2023-04-26T05:04:47;94166.47;;;-0.42;81.42
39223;BME280;24936;46.328;11.026;2023-04-26T05:07:12;94158.44;;;-0.53;80.85
39223;BME280;24936;46.328;11.026;2023-04-26T05:09:40;94164.28;;;-0.50;81.46
39223;BME280;24936;46.328;11.026;2023-04-26T05:12:06;94170.38;;;-0.51;83.30
39223;BME280;24936;46.328;11.026;2023-04-26T05:14:32;94175.28;;;-0.46;83.25
39223;BME280;24936;46.328;11.026;2023-04-26T05:16:57;94175.88;;;-0.57;83.62
39223;BME280;24936;46.328;11.026;2023-04-26T05:19:23;94174.31;;;-0.43;82.98
39223;BME280;24936;46.328;11.026;2023-04-26T05:21:49;94172.41;;;-0.40;83.70
39223;BME280;24936;46.328;11.026;2023-04-26T05:24:15;94178.31;;;-0.38;82.64
39223;BME280;24936;46.328;11.026;2023-04-26T05:26:40;94186.50;;;-0.29;82.59
39223;BME280;24936;46.328;11.026;2023-04-26T05:29:06;94185.78;;;-0.16;82.26
39223;BME280;24936;46.328;11.026;2023-04-26T05:31:31;94184.53;;;0.08;79.95
39223;BME280;24936;46.328;11.026;2023-04-26T05:33:57;94188.38;;;0.33;78.32
39223;BME280;24936;46.328;11.026;2023-04-26T05:36:22;94191.81;;;0.17;79.67
39223;BME280;24936;46.328;11.026;2023-04-26T05:38:48;94185.78;;;0.33;77.53
39223;BME280;24936;46.328;11.026;2023-04-26T05:41:13;94187.81;;;0.58;76.80
39223;BME280;24936;46.328;11.026;2023-04-26T05:43:39;94188.19;;;0.36;79.17
39223;BME280;24936;46.328;11.026;2023-04-26T05:46:05;94184.03;;;0.33;78.02
39223;BME280;24936;46.328;11.026;2023-04-26T05:48:30;94200.38;;;0.50;78.59
39223;BME280;24936;46.328;11.026;2023-04-26T05:50:56;94206.25;;;0.37;77.98
39223;BME280;24936;46.328;11.026;2023-04-26T05:53:21;94205.50;;;0.82;76.27
39223;BME280;24936;46.328;11.026;2023-04-26T05:55:47;94198.47;;;0.84;74.09
39223;BME280;24936;46.328;11.026;2023-04-26T05:58:12;94206.59;;;1.08;72.12
39223;BME280;24936;46.328;11.026;2023-04-26T06:00:38;94200.44;;;1.40;69.90
39223;BME280;24936;46.328;11.026;2023-04-26T06:03:04;94205.56;;;1.56;71.38
39223;BME280;24936;46.328;11.026;2023-04-26T06:05:30;94207.59;;;1.50;72.37
39223;BME280;24936;46.328;11.026;2023-04-26T06:07:56;94207.72;;;1.63;73.03
39223;BME280;24936;46.328;11.026;2023-04-26T06:10:21;94207.28;;;1.41;71.50
39223;BME280;24936;46.328;11.026;2023-04-26T06:12:47;94204.53;;;1.58;71.05
39223;BME280;24936;46.328;11.026;2023-04-26T06:15:13;94193.53;;;1.83;70.07
39223;BME280;24936;46.328;11.026;2023-04-26T06:17:39;94191.22;;;1.79;70.58
39223;BME280;24936;46.328;11.026;2023-04-26T06:20:06;94198.31;;;1.90;70.37
39223;BME280;24936;46.328;11.026;2023-04-26T06:22:33;94193.19;;;2.17;70.29
39223;BME280;24936;46.328;11.026;2023-04-26T06:24:59;94193.34;;;2.28;67.33
39223;BME280;24936;46.328;11.026;2023-04-26T06:27:24;94189.94;;;2.55;65.18
39223;BME280;24936;46.328;11.026;2023-04-26T06:29:53;94187.91;;;2.60;63.81
39223;BME280;24936;46.328;11.026;2023-04-26T06:32:19;94183.44;;;2.63;63.19
39223;BME280;24936;46.328;11.026;2023-04-26T06:34:45;94179.78;;;2.65;63.43
39223;BME280;24936;46.328;11.026;2023-04-26T06:37:10;94187.91;;;2.73;63.67
39223;BME280;24936;46.328;11.026;2023-04-26T06:39:36;94192.94;;;2.77;65.11
39223;BME280;24936;46.328;11.026;2023-04-26T06:42:05;94188.66;;;2.75;63.72
39223;BME280;24936;46.328;11.026;2023-04-26T06:44:30;94192.59;;;3.09;63.43
39223;BME280;24936;46.328;11.026;2023-04-26T06:46:56;94190.75;;;3.11;62.96
39223;BME280;24936;46.328;11.026;2023-04-26T06:49:22;94190.09;;;3.07;63.46
39223;BME280;24936;46.328;11.026;2023-04-26T06:51:48;94187.81;;;3.28;62.82
39223;BME280;24936;46.328;11.026;2023-04-26T06:54:13;94193.69;;;3.45;61.37
39223;BME280;24936;46.328;11.026;2023-04-26T06:56:39;94188.91;;;3.64;60.80
39223;BME280;24936;46.328;11.026;2023-04-26T06:59:06;94189.09;;;3.87;61.99
39223;BME280;24936;46.328;11.026;2023-04-26T07:01:32;94189.09;;;3.87;61.28
39223;BME280;24936;46.328;11.026;2023-04-26T07:04:07;94186.94;;;4.18;63.33
39223;BME280;24936;46.328;11.026;2023-04-26T07:06:35;94192.34;;;4.28;58.70
39223;BME280;24936;46.328;11.026;2023-04-26T07:09:01;94184.19;;;4.46;57.12
39223;BME280;24936;46.328;11.026;2023-04-26T07:11:27;94184.97;;;4.59;57.73
39223;BME280;24936;46.328;11.026;2023-04-26T07:13:52;94180.16;;;4.66;57.16
39223;BME280;24936;46.328;11.026;2023-04-26T07:16:18;94181.31;;;4.86;58.17
39223;BME280;24936;46.328;11.026;2023-04-26T07:18:43;94177.56;;;5.01;60.34
39223;BME280;24936;46.328;11.026;2023-04-26T07:21:09;94181.78;;;5.27;55.59
39223;BME280;24936;46.328;11.026;2023-04-26T07:23:34;94179.28;;;5.14;59.44
39223;BME280;24936;46.328;11.026;2023-04-26T07:26:01;94176.31;;;5.18;58.49
39223;BME280;24936;46.328;11.026;2023-04-26T07:28:31;94183.06;;;5.21;57.11
39223;BME280;24936;46.328;11.026;2023-04-26T07:31:00;94176.84;;;5.35;55.42
39223;BME280;24936;46.328;11.026;2023-04-26T07:33:26;94174.81;;;5.39;57.42
39223;BME280;24936;46.328;11.026;2023-04-26T07:35:55;94173.91;;;5.51;56.97
39223;BME280;24936;46.328;11.026;2023-04-26T07:38:21;94168.22;;;5.80;58.91
39223;BME280;24936;46.328;11.026;2023-04-26T07:40:47;94152.81;;;6.00;58.71
39223;BME280;24936;46.328;11.026;2023-04-26T07:43:13;94159.25;;;6.07;58.25
39223;BME280;24936;46.328;11.026;2023-04-26T07:45:40;94161.97;;;6.17;56.84
39223;BME280;24936;46.328;11.026;2023-04-26T07:48:06;94158.34;;;6.40;56.92
39223;BME280;24936;46.328;11.026;2023-04-26T07:50:31;94161.28;;;6.58;56.98
39223;BME280;24936;46.328;11.026;2023-04-26T07:52:57;94156.47;;;7.08;55.67
39223;BME280;24936;46.328;11.026;2023-04-26T07:55:23;94157.19;;;7.31;54.20
39223;BME280;24936;46.328;11.026;2023-04-26T07:57:48;94154.06;;;7.58;55.02
39223;BME280;24936;46.328;11.026;2023-04-26T08:00:14;94139.91;;;7.92;52.35
39223;BME280;24936;46.328;11.026;2023-04-26T08:02:44;94147.25;;;7.77;54.62
39223;BME280;24936;46.328;11.026;2023-04-26T08:05:13;94143.50;;;7.70;54.40
39223;BME280;24936;46.328;11.026;2023-04-26T08:07:40;94143.81;;;7.76;55.99
39223;BME280;24936;46.328;11.026;2023-04-26T08:10:06;94145.75;;;8.05;53.50
39223;BME280;24936;46.328;11.026;2023-04-26T08:12:32;94141.88;;;8.09;52.49
39223;BME280;24936;46.328;11.026;2023-04-26T08:15:02;94132.66;;;8.15;49.31
39223;BME280;24936;46.328;11.026;2023-04-26T08:17:32;94127.56;;;8.14;50.53
39223;BME280;24936;46.328;11.026;2023-04-26T08:19:58;94125.13;;;8.32;49.00
39223;BME280;24936;46.328;11.026;2023-04-26T08:22:24;94119.28;;;8.59;50.66
39223;BME280;24936;46.328;11.026;2023-04-26T08:24:53;94119.69;;;9.13;53.02
39223;BME280;24936;46.328;11.026;2023-04-26T08:27:19;94113.09;;;10.14;44.49
39223;BME280;24936;46.328;11.026;2023-04-26T08:29:45;94119.47;;;11.04;43.10
39223;BME280;24936;46.328;11.026;2023-04-26T08:32:11;94124.25;;;11.26;43.35
39223;BME280;24936;46.328;11.026;2023-04-26T08:34:36;94112.28;;;11.32;42.32
39223;BME280;24936;46.328;11.026;2023-04-26T08:37:02;94108.03;;;11.57;43.29
39223;BME280;24936;46.328;11.026;2023-04-26T08:39:27;94115.06;;;12.36;41.55
39223;BME280;24936;46.328;11.026;2023-04-26T08:41:53;94111.22;;;12.90;35.92
39223;BME280;24936;46.328;11.026;2023-04-26T08:44:23;94102.03;;;13.27;37.06
39223;BME280;24936;46.328;11.026;2023-04-26T08:47:21;94097.88;;;14.38;34.62
39223;BME280;24936;46.328;11.026;2023-04-26T08:49:57;94100.19;;;15.05;32.90
39223;BME280;24936;46.328;11.026;2023-04-26T08:52:29;94101.47;;;15.94;33.04
39223;BME280;24936;46.328;11.026;2023-04-26T08:54:56;94093.78;;;16.80;28.01
39223;BME280;24936;46.328;11.026;2023-04-26T08:57:26;94091.19;;;17.24;30.41
39223;BME280;24936;46.328;11.026;2023-04-26T08:59:52;94092.84;;;17.47;25.77
39223;BME280;24936;46.328;11.026;2023-04-26T09:02:20;94095.78;;;18.09;27.03
39223;BME280;24936;46.328;11.026;2023-04-26T09:04:47;94101.78;;;17.89;28.47
39223;BME280;24936;46.328;11.026;2023-04-26T09:07:53;94097.72;;;18.22;29.62
39223;BME280;24936;46.328;11.026;2023-04-26T09:10:21;94094.06;;;19.40;26.37
39223;BME280;24936;46.328;11.026;2023-04-26T09:12:51;94085.59;;;18.19;27.43
39223;BME280;24936;46.328;11.026;2023-04-26T09:15:17;94082.75;;;19.24;26.74
39223;BME280;24936;46.328;11.026;2023-04-26T09:17:44;94088.13;;;19.71;28.93
39223;BME280;24936;46.328;11.026;2023-04-26T09:20:24;94084.22;;;19.74;26.97
39223;BME280;24936;46.328;11.026;2023-04-26T09:22:52;94086.47;;;19.57;23.93
39223;BME280;24936;46.328;11.026;2023-04-26T09:25:28;94086.22;;;20.39;29.97
39223;BME280;24936;46.328;11.026;2023-04-26T09:27:54;94069.84;;;20.81;21.71
39223;BME280;24936;46.328;11.026;2023-04-26T09:30:20;94070.13;;;21.05;20.47
39223;BME280;24936;46.328;11.026;2023-04-26T09:40:19;94068.22;;;20.67;27.09
39223;BME280;24936;46.328;11.026;2023-04-26T09:42:44;94061.94;;;20.47;25.79
39223;BME280;24936;46.328;11.026;2023-04-26T09:45:10;94058.38;;;20.67;22.98
39223;BME280;24936;46.328;11.026;2023-04-26T09:47:36;94063.81;;;20.40;23.54
39223;BME280;24936;46.328;11.026;2023-04-26T09:50:01;94057.66;;;20.92;25.35
39223;BME280;24936;46.328;11.026;2023-04-26T09:52:28;94042.78;;;21.92;19.80
39223;BME280;24936;46.328;11.026;2023-04-26T09:54:54;94045.88;;;21.64;25.88
39223;BME280;24936;46.328;11.026;2023-04-26T09:57:50;94047.47;;;21.72;26.30
39223;BME280;24936;46.328;11.026;2023-04-26T10:00:26;94038.22;;;21.67;24.86
39223;BME280;24936;46.328;11.026;2023-04-26T10:02:53;94042.78;;;21.35;22.50
39223;BME280;24936;46.328;11.026;2023-04-26T10:05:19;94035.66;;;20.38;22.01
39223;BME280;24936;46.328;11.026;2023-04-26T10:07:46;94038.25;;;20.58;22.02
39223;BME280;24936;46.328;11.026;2023-04-26T10:10:12;94036.09;;;20.87;24.06
39223;BME280;24936;46.328;11.026;2023-04-26T10:12:40;94030.88;;;21.63;24.01
39223;BME280;24936;46.328;11.026;2023-04-26T10:15:10;94030.75;;;21.51;20.92
39223;BME280;24936;46.328;11.026;2023-04-26T10:17:38;94028.94;;;20.81;20.51
39223;BME280;24936;46.328;11.026;2023-04-26T10:20:09;94022.81;;;21.05;19.92
39223;BME280;24936;46.328;11.026;2023-04-26T10:22:42;94021.47;;;21.21;20.49
39223;BME280;24936;46.328;11.026;2023-04-26T10:25:09;94005.72;;;21.89;25.55
39223;BME280;24936;46.328;11.026;2023-04-26T10:30:14;94003.28;;;21.62;21.06
39223;BME280;24936;46.328;11.026;2023-04-26T10:35:31;93982.88;;;22.91;19.80
39223;BME280;24936;46.328;11.026;2023-04-26T10:45:41;93981.44;;;20.69;20.79
39223;BME280;24936;46.328;11.026;2023-04-26T10:53:31;93971.84;;;23.66;22.03
39223;BME280;24936;46.328;11.026;2023-04-26T10:55:57;93958.81;;;23.15;21.41
39223;BME280;24936;46.328;11.026;2023-04-26T10:58:31;93957.44;;;22.52;19.84
39223;BME280;24936;46.328;11.026;2023-04-26T11:03:39;93955.50;;;22.03;20.04
39223;BME280;24936;46.328;11.026;2023-04-26T11:06:09;93942.63;;;21.75;21.92
39223;BME280;24936;46.328;11.026;2023-04-26T11:08:38;93942.69;;;22.24;19.36
39223;BME280;24936;46.328;11.026;2023-04-26T11:13:33;93932.97;;;21.92;17.76
39223;BME280;24936;46.328;11.026;2023-04-26T11:16:04;93939.22;;;22.05;20.86
39223;BME280;24936;46.328;11.026;2023-04-26T11:18:31;93933.03;;;22.04;22.04
39223;BME280;24936;46.328;11.026;2023-04-26T11:20:57;93934.44;;;22.44;21.62
39223;BME280;24936;46.328;11.026;2023-04-26T11:23:24;93926.47;;;21.63;24.02
39223;BME280;24936;46.328;11.026;2023-04-26T11:25:51;93933.69;;;21.62;23.47
39223;BME280;24936;46.328;11.026;2023-04-26T11:28:19;93924.75;;;21.68;22.41
39223;BME280;24936;46.328;11.026;2023-04-26T11:30:51;93924.16;;;22.22;21.73
39223;BME280;24936;46.328;11.026;2023-04-26T11:33:18;93921.94;;;21.63;22.42
39223;BME280;24936;46.328;11.026;2023-04-26T11:35:45;93920.59;;;21.73;21.11
39223;BME280;24936;46.328;11.026;2023-04-26T11:38:12;93917.38;;;22.01;22.69
39223;BME280;24936;46.328;11.026;2023-04-26T11:40:41;93925.13;;;22.89;23.00
39223;BME280;24936;46.328;11.026;2023-04-26T11:43:12;93914.09;;;22.36;23.54
39223;BME280;24936;46.328;11.026;2023-04-26T11:45:38;93912.44;;;22.05;21.53
39223;BME280;24936;46.328;11.026;2023-04-26T11:48:06;93913.31;;;22.17;21.09
39223;BME280;24936;46.328;11.026;2023-04-26T11:50:33;93904.72;;;22.45;23.46
39223;BME280;24936;46.328;11.026;2023-04-26T11:53:03;93912.19;;;21.88;24.86
39223;BME280;24936;46.328;11.026;2023-04-26T11:55:30;93910.78;;;22.04;22.33
39223;BME280;24936;46.328;11.026;2023-04-26T11:57:58;93907.53;;;21.64;24.69
39223;BME280;24936;46.328;11.026;2023-04-26T12:00:26;93913.25;;;21.68;24.77
39223;BME280;24936;46.328;11.026;2023-04-26T12:02:55;93906.53;;;21.33;21.30
39223;BME280;24936;46.328;11.026;2023-04-26T12:05:26;93894.75;;;22.34;22.82
39223;BME280;24936;46.328;11.026;2023-04-26T12:07:58;93898.63;;;22.20;23.62
39223;BME280;24936;46.328;11.026;2023-04-26T12:10:31;93901.63;;;21.30;25.36
39223;BME280;24936;46.328;11.026;2023-04-26T12:12:58;93897.34;;;21.48;22.54
39223;BME280;24936;46.328;11.026;2023-04-26T12:15:33;93888.91;;;21.69;23.07
39223;BME280;24936;46.328;11.026;2023-04-26T12:18:00;93897.47;;;21.97;25.06
39223;BME280;24936;46.328;11.026;2023-04-26T12:20:31;93899.00;;;21.49;24.93
39223;BME280;24936;46.328;11.026;2023-04-26T12:23:01;93890.72;;;21.06;22.83
39223;BME280;24936;46.328;11.026;2023-04-26T12:25:27;93878.50;;;20.92;23.16
39223;BME280;24936;46.328;11.026;2023-04-26T12:27:54;93890.63;;;21.38;25.88
39223;BME280;24936;46.328;11.026;2023-04-26T12:30:19;93894.63;;;21.73;22.81
39223;BME280;24936;46.328;11.026;2023-04-26T12:32:46;93886.59;;;21.54;23.62
39223;BME280;24936;46.328;11.026;2023-04-26T12:35:11;93888.25;;;20.47;24.26
39223;BME280;24936;46.328;11.026;2023-04-26T12:37:37;93888.66;;;21.08;24.62
39223;BME280;24936;46.328;11.026;2023-04-26T12:40:03;93881.63;;;21.33;22.42
39223;BME280;24936;46.328;11.026;2023-04-26T12:42:28;93888.59;;;20.90;24.55
39223;BME280;24936;46.328;11.026;2023-04-26T12:44:54;93881.31;;;20.97;23.58
39223;BME280;24936;46.328;11.026;2023-04-26T12:47:20;93885.00;;;20.77;24.17
39223;BME280;24936;46.328;11.026;2023-04-26T12:49:45;93880.53;;;20.97;23.46
39223;BME280;24936;46.328;11.026;2023-04-26T12:52:11;93870.91;;;20.57;22.82
39223;BME280;24936;46.328;11.026;2023-04-26T12:54:36;93876.63;;;20.92;24.05
39223;BME280;24936;46.328;11.026;2023-04-26T12:57:02;93864.41;;;21.47;23.59
39223;BME280;24936;46.328;11.026;2023-04-26T12:59:27;93858.16;;;21.16;22.88
39223;BME280;24936;46.328;11.026;2023-04-26T13:01:53;93853.63;;;21.54;25.04
39223;BME280;24936;46.328;11.026;2023-04-26T13:04:18;93847.34;;;20.79;24.12
39223;BME280;24936;46.328;11.026;2023-04-26T13:06:44;93856.34;;;20.53;25.36
39223;BME280;24936;46.328;11.026;2023-04-26T13:09:10;93857.31;;;19.81;25.25
39223;BME280;24936;46.328;11.026;2023-04-26T13:11:37;93857.25;;;20.01;25.33
39223;BME280;24936;46.328;11.026;2023-04-26T13:14:03;93858.72;;;19.97;23.89
39223;BME280;24936;46.328;11.026;2023-04-26T13:16:31;93856.34;;;19.62;25.55
39223;BME280;24936;46.328;11.026;2023-04-26T13:18:57;93852.06;;;19.61;24.79
39223;BME280;24936;46.328;11.026;2023-04-26T13:21:23;93844.09;;;20.06;30.29
39223;BME280;24936;46.328;11.026;2023-04-26T13:23:48;93844.31;;;19.39;25.24
39223;BME280;24936;46.328;11.026;2023-04-26T13:26:13;93840.25;;;19.23;25.97
39223;BME280;24936;46.328;11.026;2023-04-26T13:28:41;93836.53;;;19.24;25.12
39223;BME280;24936;46.328;11.026;2023-04-26T13:31:07;93834.34;;;19.07;24.18